createdAt,value
2018-12-29T00:01:39.519Z,17.70
2018-12-29T00:04:07.927Z,17.77
2018-12-29T00:06:36.302Z,17.73
2018-12-29T00:09:05.947Z,16.77
2018-12-29T00:11:34.326Z,17.07
2018-12-29T00:14:02.741Z,16.13
2018-12-29T00:16:31.110Z,16.47
2018-12-29T00:18:59.527Z,16.20
2018-12-29T00:21:27.904Z,16.60
2018-12-29T00:23:56.325Z,16.20
2018-12-29T00:26:24.710Z,15.60
2018-12-29T00:28:53.110Z,15.37
2018-12-29T00:31:21.493Z,15.50
2018-12-29T00:33:49.910Z,15.87
2018-12-29T00:36:18.282Z,16.10
2018-12-29T00:38:46.658Z,16.13
2018-12-29T00:41:15.072Z,17.13
2018-12-29T00:43:43.467Z,16.90
2018-12-29T00:46:11.882Z,17.00
2018-12-29T00:48:40.197Z,17.00
2018-12-29T00:51:08.602Z,16.97
2018-12-29T00:53:36.976Z,16.40
2018-12-29T00:56:05.382Z,16.30
2018-12-29T00:58:33.759Z,16.27
2018-12-29T01:01:02.163Z,16.03
2018-12-29T01:03:30.539Z,16.50
2018-12-29T01:05:58.947Z,16.87
2018-12-29T01:08:27.333Z,16.27
2018-12-29T01:10:55.749Z,15.17
2018-12-29T01:13:24.133Z,15.43
2018-12-29T01:15:52.539Z,15.70
2018-12-29T01:18:20.923Z,15.73
2018-12-29T01:20:49.335Z,15.47
2018-12-29T01:23:17.723Z,15.13
2018-12-29T01:25:46.145Z,14.40
2018-12-29T01:28:14.524Z,15.00
2018-12-29T01:30:42.929Z,14.03
2018-12-29T01:33:11.311Z,14.60
2018-12-29T01:35:39.729Z,14.70
2018-12-29T01:38:08.110Z,13.43
2018-12-29T01:40:36.524Z,13.90
2018-12-29T01:43:04.894Z,13.13
2018-12-29T01:45:33.310Z,13.50
2018-12-29T01:48:01.697Z,13.57
2018-12-29T01:50:30.111Z,13.10
2018-12-29T01:52:58.491Z,12.30
2018-12-29T01:55:26.871Z,13.20
2018-12-29T01:57:55.283Z,12.43
2018-12-29T02:00:23.660Z,13.73
2018-12-29T02:02:52.072Z,13.53
2018-12-29T02:05:20.450Z,12.47
2018-12-29T02:07:48.853Z,11.73
2018-12-29T02:10:17.233Z,12.30
2018-12-29T02:12:45.634Z,12.00
2018-12-29T02:15:13.949Z,10.70
2018-12-29T02:17:42.342Z,11.73
2018-12-29T02:20:10.718Z,11.07
2018-12-29T02:22:39.130Z,10.40
2018-12-29T02:25:07.513Z,11.80
2018-12-29T02:27:35.928Z,10.47
2018-12-29T02:30:04.843Z,10.67
2018-12-29T02:32:33.269Z,10.83
2018-12-29T02:35:01.672Z,10.90
2018-12-29T02:37:30.073Z,10.30
2018-12-29T02:39:58.442Z,10.83
2018-12-29T02:42:26.860Z,9.83
2018-12-29T02:44:55.222Z,11.27
2018-12-29T02:47:23.631Z,10.93
2018-12-29T02:49:52.011Z,10.93
2018-12-29T02:52:20.433Z,10.30
2018-12-29T02:54:48.815Z,11.60
2018-12-29T02:57:17.226Z,11.70
2018-12-29T02:59:45.614Z,11.07
2018-12-29T03:02:13.993Z,11.17
2018-12-29T03:04:42.400Z,11.27
2018-12-29T03:07:10.788Z,12.10
2018-12-29T03:09:39.187Z,12.03
2018-12-29T03:12:07.568Z,12.10
2018-12-29T03:14:35.987Z,11.40
2018-12-29T03:17:04.368Z,12.20
2018-12-29T03:19:32.786Z,12.17
2018-12-29T03:22:01.164Z,12.40
2018-12-29T03:24:29.566Z,11.77
2018-12-29T03:26:57.951Z,11.77
2018-12-29T03:29:26.383Z,11.73
2018-12-29T03:31:54.779Z,12.30
2018-12-29T03:34:23.165Z,12.83
2018-12-29T03:36:51.543Z,12.07
2018-12-29T03:39:19.950Z,11.70
2018-12-29T03:41:48.340Z,11.50
2018-12-29T03:44:16.748Z,12.83
2018-12-29T03:46:45.135Z,12.40
2018-12-29T03:49:13.545Z,12.73
2018-12-29T03:51:41.929Z,12.20
2018-12-29T03:54:10.342Z,12.67
2018-12-29T03:56:38.719Z,12.87
2018-12-29T03:59:07.125Z,12.83
2018-12-29T04:01:35.507Z,12.93
2018-12-29T04:04:03.914Z,13.20
2018-12-29T04:06:32.294Z,13.07
2018-12-29T04:09:31.255Z,12.70
2018-12-29T04:12:00.675Z,12.60
2018-12-29T04:14:29.086Z,14.20
2018-12-29T04:16:57.467Z,12.93
2018-12-29T04:19:25.878Z,13.53
2018-12-29T04:21:54.249Z,13.60
2018-12-29T04:24:22.659Z,14.47
2018-12-29T04:26:51.041Z,14.17
2018-12-29T04:29:19.454Z,13.50
2018-12-29T04:31:47.833Z,14.13
2018-12-29T04:34:16.234Z,14.30
2018-12-29T04:36:44.614Z,13.73
2018-12-29T04:41:47.053Z,14.60
2018-12-29T04:44:15.510Z,13.67
2018-12-29T04:46:43.896Z,14.13
2018-12-29T04:49:12.287Z,13.60
2018-12-29T04:51:40.710Z,12.93
2018-12-29T04:54:09.087Z,13.30
2018-12-29T04:56:37.423Z,13.60
2018-12-29T04:59:05.801Z,13.53
2018-12-29T05:01:34.208Z,13.53
2018-12-29T05:04:02.586Z,13.20
2018-12-29T05:06:31.001Z,13.13
2018-12-29T05:08:59.377Z,13.87
2018-12-29T05:11:27.794Z,13.50
2018-12-29T05:13:56.174Z,14.20
2018-12-29T05:16:24.583Z,13.00
2018-12-29T05:18:53.095Z,14.37
2018-12-29T05:21:21.514Z,14.27
2018-12-29T05:23:49.890Z,13.47
2018-12-29T05:26:18.304Z,13.60
2018-12-29T05:28:46.679Z,14.20
2018-12-29T05:31:15.021Z,14.43
2018-12-29T05:33:43.467Z,13.23
2018-12-29T05:36:11.875Z,14.77
2018-12-29T05:38:40.247Z,13.53
2018-12-29T05:41:08.735Z,13.47
2018-12-29T05:43:37.116Z,12.90
2018-12-29T05:46:05.527Z,13.03
2018-12-29T05:48:33.903Z,12.60
2018-12-29T05:51:02.311Z,13.90
2018-12-29T05:53:30.698Z,14.23
2018-12-29T05:55:59.119Z,14.13
2018-12-29T05:58:27.502Z,13.70
2018-12-29T06:00:55.915Z,12.77
2018-12-29T06:03:24.299Z,13.73
2018-12-29T06:05:52.714Z,13.10
2018-12-29T06:08:21.087Z,13.13
2018-12-29T06:10:49.492Z,13.83
2018-12-29T06:13:17.881Z,12.67
2018-12-29T06:15:46.252Z,14.43
2018-12-29T06:18:14.677Z,13.10
2018-12-29T06:20:43.059Z,14.27
2018-12-29T06:23:11.490Z,14.13
2018-12-29T06:25:39.940Z,13.60
2018-12-29T06:28:08.346Z,12.33
2018-12-29T06:30:36.653Z,13.57
2018-12-29T06:33:05.059Z,14.70
2018-12-29T06:35:33.368Z,13.33
2018-12-29T06:38:01.767Z,14.53
2018-12-29T06:40:30.206Z,14.23
2018-12-29T06:42:58.614Z,15.33
2018-12-29T06:45:26.931Z,13.23
2018-12-29T06:47:55.338Z,13.23
2018-12-29T06:50:23.727Z,13.00
2018-12-29T06:52:52.135Z,14.00
2018-12-29T06:55:20.515Z,13.67
2018-12-29T06:57:48.936Z,14.43
2018-12-29T07:00:17.331Z,14.03
2018-12-29T07:02:45.733Z,12.50
2018-12-29T07:05:14.125Z,12.87
2018-12-29T07:07:42.535Z,12.70
2018-12-29T07:10:10.963Z,13.93
2018-12-29T07:12:39.377Z,13.30
2018-12-29T07:15:07.752Z,12.37
2018-12-29T07:17:36.167Z,13.00
2018-12-29T07:20:05.001Z,12.90
2018-12-29T07:22:33.418Z,14.10
2018-12-29T07:25:01.859Z,13.57
2018-12-29T07:27:30.335Z,13.50
2018-12-29T07:29:58.988Z,12.30
2018-12-29T07:32:27.407Z,13.83
2018-12-29T07:34:55.803Z,13.63
2018-12-29T07:37:24.311Z,13.93
2018-12-29T07:39:52.728Z,13.07
2018-12-29T07:42:21.125Z,12.93
2018-12-29T07:44:49.523Z,13.30
2018-12-29T07:47:17.903Z,13.30
2018-12-29T07:49:46.319Z,13.43
2018-12-29T07:52:14.735Z,13.13
2018-12-29T07:54:43.155Z,13.70
2018-12-29T07:57:11.693Z,13.67
2018-12-29T07:59:40.103Z,10.50
2018-12-29T08:02:08.513Z,11.07
2018-12-29T08:04:36.924Z,11.63
2018-12-29T08:07:05.306Z,10.73
2018-12-29T08:09:33.714Z,11.77
2018-12-29T08:12:02.103Z,12.13
2018-12-29T08:14:30.510Z,12.53
2018-12-29T08:16:58.890Z,12.60
2018-12-29T08:19:27.321Z,11.03
2018-12-29T08:21:55.697Z,12.07
2018-12-29T08:24:24.105Z,13.00
2018-12-29T08:26:52.486Z,14.10
2018-12-29T08:29:20.966Z,14.10
2018-12-29T08:31:49.351Z,14.70
2018-12-29T08:34:17.759Z,15.20
2018-12-29T08:36:46.140Z,16.33
2018-12-29T08:39:14.550Z,17.27
2018-12-29T08:41:43.019Z,16.83
2018-12-29T08:44:11.524Z,18.03
2018-12-29T08:46:39.899Z,16.93
2018-12-29T08:49:08.318Z,15.80
2018-12-29T08:51:36.698Z,16.77
2018-12-29T08:54:05.076Z,18.07
2018-12-29T08:56:33.494Z,17.23
2018-12-29T08:59:01.870Z,16.47
2018-12-29T09:01:30.289Z,17.57
2018-12-29T09:03:58.668Z,17.17
2018-12-29T09:06:27.082Z,17.33
2018-12-29T09:08:55.555Z,17.80
2018-12-29T09:11:23.899Z,18.33
2018-12-29T09:13:52.287Z,18.77
2018-12-29T09:16:20.715Z,17.30
2018-12-29T09:18:49.770Z,16.60
2018-12-29T09:21:18.519Z,15.80
2018-12-29T09:23:46.895Z,16.63
2018-12-29T09:26:15.325Z,16.17
2018-12-29T09:28:43.709Z,16.27
2018-12-29T09:31:12.121Z,15.17
2018-12-29T09:33:40.514Z,15.80
2018-12-29T09:36:08.919Z,14.50
2018-12-29T09:38:37.375Z,15.50
2018-12-29T09:41:05.795Z,14.93
2018-12-29T09:43:34.179Z,14.10
2018-12-29T09:46:02.599Z,14.90
2018-12-29T09:48:30.979Z,13.40
2018-12-29T09:50:59.397Z,12.30
2018-12-29T09:53:27.851Z,12.83
2018-12-29T09:55:56.267Z,11.80
2018-12-29T09:58:24.657Z,12.77
2018-12-29T10:00:53.066Z,12.70
2018-12-29T10:03:21.422Z,12.67
2018-12-29T10:05:49.897Z,11.97
2018-12-29T10:08:18.347Z,13.37
2018-12-29T10:10:46.998Z,12.97
2018-12-29T10:13:15.378Z,12.37
2018-12-29T10:15:43.791Z,12.83
2018-12-29T10:18:12.173Z,12.33
2018-12-29T10:20:40.555Z,12.73
2018-12-29T10:23:08.967Z,12.67
2018-12-29T10:25:37.347Z,13.70
2018-12-29T10:28:05.767Z,13.70
2018-12-29T10:30:34.155Z,14.10
2018-12-29T10:33:02.575Z,13.37
2018-12-29T10:35:31.326Z,12.97
2018-12-29T10:37:59.745Z,13.87
2018-12-29T10:40:28.116Z,13.27
2018-12-29T10:42:56.525Z,14.90
2018-12-29T10:45:24.904Z,15.27
2018-12-29T10:47:53.299Z,16.03
2018-12-29T10:50:21.703Z,15.67
2018-12-29T10:52:50.107Z,15.50
2018-12-29T10:55:18.487Z,15.90
2018-12-29T10:57:46.907Z,16.17
2018-12-29T11:00:15.447Z,16.57
2018-12-29T11:02:43.858Z,16.27
2018-12-29T11:05:12.243Z,16.63
2018-12-29T11:07:40.659Z,16.33
2018-12-29T11:10:09.136Z,16.83
2018-12-29T11:12:37.544Z,16.30
2018-12-29T11:15:05.925Z,16.70
2018-12-29T11:17:38.661Z,15.90
2018-12-29T11:20:05.424Z,16.00
2018-12-29T11:22:33.919Z,16.30
2018-12-29T11:25:02.325Z,15.20
2018-12-29T11:27:30.692Z,15.57
2018-12-29T11:29:59.129Z,15.60
2018-12-29T11:32:27.624Z,15.10
2018-12-29T11:34:56.027Z,15.00
2018-12-29T11:37:24.525Z,15.97
2018-12-29T11:39:52.939Z,15.10
2018-12-29T11:42:21.321Z,15.13
2018-12-29T11:44:49.727Z,15.93
2018-12-29T11:47:18.103Z,14.30
2018-12-29T11:49:46.531Z,13.93
2018-12-29T11:52:14.931Z,14.60
2018-12-29T11:54:43.335Z,14.13
2018-12-29T11:57:11.715Z,13.43
2018-12-29T11:59:40.135Z,11.60
2018-12-29T12:02:08.513Z,14.27
2018-12-29T12:04:36.924Z,13.03
2018-12-29T12:07:05.302Z,11.87
2018-12-29T12:09:33.714Z,13.47
2018-12-29T12:12:02.093Z,12.80
2018-12-29T12:14:30.506Z,12.40
2018-12-29T12:16:58.979Z,12.93
2018-12-29T12:19:27.396Z,12.03
2018-12-29T12:21:55.774Z,12.50
2018-12-29T12:24:24.191Z,12.80
2018-12-29T12:26:52.596Z,12.67
2018-12-29T12:29:21.011Z,13.30
2018-12-29T12:31:49.399Z,12.20
2018-12-29T12:34:17.846Z,12.03
2018-12-29T12:36:46.222Z,11.23
2018-12-29T12:39:14.609Z,12.63
2018-12-29T12:41:43.023Z,11.53
2018-12-29T12:44:11.407Z,10.97
2018-12-29T12:46:40.127Z,11.40
2018-12-29T12:49:08.806Z,10.43
2018-12-29T12:51:37.206Z,13.03
2018-12-29T12:54:05.995Z,10.77
2018-12-29T12:56:34.406Z,11.30
2018-12-29T12:59:03.087Z,10.00
2018-12-29T13:01:31.526Z,11.13
2018-12-29T13:03:59.915Z,10.90
2018-12-29T13:06:28.339Z,11.77
2018-12-29T13:08:56.715Z,9.73
2018-12-29T13:11:25.359Z,8.73
2018-12-29T13:13:53.734Z,8.87
2018-12-29T13:16:22.147Z,10.10
2018-12-29T13:18:50.558Z,8.90
2018-12-29T13:21:18.979Z,9.30
2018-12-29T13:23:47.650Z,9.87
2018-12-29T13:26:16.079Z,8.40
2018-12-29T13:28:44.455Z,7.97
2018-12-29T13:31:12.858Z,7.57
2018-12-29T13:33:41.242Z,8.30
2018-12-29T13:36:09.665Z,8.67
2018-12-29T13:38:38.030Z,8.23
2018-12-29T13:41:06.439Z,8.23
2018-12-29T13:43:34.826Z,8.53
2018-12-29T13:46:03.235Z,8.17
2018-12-29T13:48:31.623Z,8.23
2018-12-29T13:51:00.032Z,8.77
2018-12-29T13:53:28.438Z,7.67
2018-12-29T13:55:56.854Z,7.63
2018-12-29T13:58:25.239Z,8.23
2018-12-29T14:00:53.616Z,7.17
2018-12-29T14:03:23.399Z,7.33
2018-12-29T14:05:51.800Z,6.70
2018-12-29T14:08:20.203Z,6.80
2018-12-29T14:10:48.584Z,6.87
2018-12-29T14:13:17.382Z,6.93
2018-12-29T14:15:45.781Z,6.20
2018-12-29T14:18:14.198Z,6.50
2018-12-29T14:20:42.573Z,6.90
2018-12-29T14:23:10.998Z,6.90
2018-12-29T14:25:39.650Z,6.90
2018-12-29T14:28:08.064Z,7.10
2018-12-29T14:30:36.482Z,7.20
2018-12-29T14:33:04.838Z,6.80
2018-12-29T14:35:33.220Z,7.00
2018-12-29T14:38:01.982Z,6.47
2018-12-29T14:40:30.362Z,6.43
2018-12-29T14:42:58.870Z,6.93
2018-12-29T14:45:27.260Z,6.77
2018-12-29T14:47:55.642Z,7.03
2018-12-29T14:50:24.337Z,7.20
2018-12-29T14:52:52.748Z,7.53
2018-12-29T14:55:21.114Z,7.13
2018-12-29T14:57:49.529Z,6.90
2018-12-29T15:00:17.894Z,6.70
2018-12-29T15:02:46.599Z,7.40
2018-12-29T15:05:14.975Z,7.17
2018-12-29T15:07:43.430Z,6.97
2018-12-29T15:10:11.815Z,7.23
2018-12-29T15:12:40.235Z,7.23
2018-12-29T15:15:08.910Z,6.73
2018-12-29T15:17:37.290Z,6.70
2018-12-29T15:20:06.095Z,7.10
2018-12-29T15:22:34.462Z,6.77
2018-12-29T15:25:02.871Z,7.00
2018-12-29T15:27:31.239Z,7.43
2018-12-29T15:29:59.650Z,7.20
2018-12-29T15:32:28.094Z,6.83
2018-12-29T15:34:56.826Z,7.50
2018-12-29T15:37:25.219Z,7.90
2018-12-29T15:39:53.619Z,8.03
2018-12-29T15:42:22.255Z,7.20
2018-12-29T15:44:50.659Z,6.53
2018-12-29T15:47:19.180Z,6.93
2018-12-29T15:49:48.130Z,6.80
2018-12-29T15:52:17.060Z,7.67
2018-12-29T15:54:45.998Z,7.53
2018-12-29T15:57:14.366Z,7.40
2018-12-29T15:59:43.075Z,7.10
2018-12-29T16:02:11.449Z,7.30
2018-12-29T16:04:39.876Z,8.60
2018-12-29T16:07:08.248Z,8.10
2018-12-29T16:09:36.947Z,7.33
2018-12-29T16:12:05.314Z,7.13
2018-12-29T16:14:35.508Z,7.40
2018-12-29T16:17:03.734Z,7.37
2018-12-29T16:19:32.138Z,6.80
2018-12-29T16:22:00.515Z,7.23
2018-12-29T16:24:28.929Z,7.80
2018-12-29T16:26:57.283Z,7.53
2018-12-29T16:29:25.703Z,7.07
2018-12-29T16:31:54.075Z,6.37
2018-12-29T16:34:22.475Z,6.57
2018-12-29T16:36:51.027Z,6.43
2018-12-29T16:39:19.395Z,6.67
2018-12-29T16:41:47.795Z,6.00
2018-12-29T16:44:16.167Z,6.30
2018-12-29T16:46:44.580Z,6.43
2018-12-29T16:49:12.968Z,6.83
2018-12-29T16:51:41.379Z,7.07
2018-12-29T16:54:09.751Z,6.60
2018-12-29T16:56:38.467Z,6.53
2018-12-29T16:59:06.855Z,13.83
2018-12-29T17:01:35.267Z,7.23
2018-12-29T17:04:03.634Z,6.10
2018-12-29T17:06:32.343Z,6.30
2018-12-29T17:09:00.715Z,6.40
2018-12-29T17:11:29.251Z,6.83
2018-12-29T17:13:57.624Z,7.20
2018-12-29T17:16:26.059Z,6.87
2018-12-29T17:18:54.457Z,7.17
2018-12-29T17:21:22.963Z,6.63
2018-12-29T17:23:51.733Z,6.03
2018-12-29T17:26:20.138Z,5.87
2018-12-29T17:28:48.504Z,5.97
2018-12-29T17:31:17.124Z,5.80
2018-12-29T17:33:45.511Z,6.47
2018-12-29T17:36:13.924Z,6.20
2018-12-29T17:38:42.295Z,5.27
2018-12-29T17:41:11.353Z,5.70
2018-12-29T17:43:39.768Z,6.13
2018-12-29T17:46:08.180Z,5.37
2018-12-29T17:48:36.551Z,5.70
2018-12-29T17:51:04.933Z,6.20
2018-12-29T17:53:33.632Z,5.20
2018-12-29T17:56:02.017Z,5.10
2018-12-29T17:58:30.419Z,5.07
2018-12-29T18:00:58.799Z,5.07
2018-12-29T18:03:27.202Z,5.43
2018-12-29T18:05:55.675Z,5.10
2018-12-29T18:08:24.122Z,5.03
2018-12-29T18:10:52.490Z,5.10
2018-12-29T18:13:21.191Z,5.20
2018-12-29T18:15:49.569Z,4.70
2018-12-29T18:18:17.996Z,5.07
2018-12-29T18:20:46.370Z,4.80
2018-12-29T18:23:14.788Z,4.80
2018-12-29T18:25:43.166Z,4.80
2018-12-29T18:28:11.565Z,4.80
2018-12-29T18:30:39.939Z,5.20
2018-12-29T18:33:08.351Z,4.60
2018-12-29T18:35:36.731Z,4.87
2018-12-29T18:38:05.140Z,5.10
2018-12-29T18:40:33.504Z,4.57
2018-12-29T18:43:01.942Z,5.17
2018-12-29T18:45:30.518Z,5.00
2018-12-29T18:47:58.927Z,5.10
2018-12-29T18:50:28.859Z,5.47
2018-12-29T18:52:57.394Z,5.53
2018-12-29T18:55:25.770Z,5.47
2018-12-29T18:57:54.510Z,5.50
2018-12-29T19:00:22.948Z,5.83
2018-12-29T19:02:51.350Z,5.70
2018-12-29T19:05:19.798Z,5.57
2018-12-29T19:07:48.178Z,6.33
2018-12-29T19:10:16.678Z,5.90
2018-12-29T19:12:45.049Z,6.10
2018-12-29T19:15:13.450Z,6.27
2018-12-29T19:17:42.147Z,6.50
2018-12-29T19:20:10.950Z,6.00
2018-12-29T19:22:41.044Z,6.33
2018-12-29T19:25:09.899Z,5.37
2018-12-29T19:27:38.274Z,5.30
2018-12-29T19:30:07.530Z,5.23
2018-12-29T19:32:35.906Z,6.00
2018-12-29T19:35:05.273Z,6.73
2018-12-29T19:37:34.054Z,7.73
2018-12-29T19:40:02.454Z,6.70
2018-12-29T19:42:32.205Z,5.77
2018-12-29T19:45:00.727Z,5.23
2018-12-29T19:47:29.100Z,5.50
2018-12-29T19:49:57.904Z,5.20
2018-12-29T19:52:26.274Z,4.83
2018-12-29T19:54:54.761Z,5.30
2018-12-29T19:57:24.429Z,4.90
2018-12-29T19:59:52.834Z,5.00
2018-12-29T20:02:21.511Z,5.33
2018-12-29T20:04:50.328Z,5.47
2018-12-29T20:07:19.006Z,5.03
2018-12-29T20:09:47.390Z,4.83
2018-12-29T20:12:15.786Z,4.50
2018-12-29T20:14:44.177Z,4.50
2018-12-29T20:17:12.598Z,4.87
2018-12-29T20:19:40.968Z,4.50
2018-12-29T20:22:09.582Z,4.67
2018-12-29T20:24:37.982Z,4.90
2018-12-29T20:27:06.396Z,4.70
2018-12-29T20:29:34.782Z,4.37
2018-12-29T20:32:03.279Z,4.63
2018-12-29T20:34:31.959Z,5.00
2018-12-29T20:37:00.377Z,4.53
2018-12-29T20:39:28.925Z,4.27
2018-12-29T20:41:57.435Z,4.83
2018-12-29T20:44:25.824Z,5.10
2018-12-29T20:46:54.231Z,4.37
2018-12-29T20:49:22.611Z,4.70
2018-12-29T20:51:51.018Z,4.20
2018-12-29T20:54:19.409Z,4.23
2018-12-29T20:56:47.814Z,4.20
2018-12-29T20:59:16.205Z,4.17
2018-12-29T21:01:44.902Z,3.93
2018-12-29T21:04:13.280Z,3.90
2018-12-29T21:06:41.664Z,4.70
2018-12-29T21:09:10.081Z,4.00
2018-12-29T21:11:38.454Z,4.20
2018-12-29T21:14:06.858Z,4.37
2018-12-29T21:16:35.464Z,3.60
2018-12-29T21:19:03.870Z,3.30
2018-12-29T21:21:32.334Z,4.20
2018-12-29T21:24:00.746Z,3.50
2018-12-29T21:26:29.140Z,3.13
2018-12-29T21:28:57.597Z,3.10
2018-12-29T21:31:26.107Z,2.93
2018-12-29T21:33:54.707Z,3.20
2018-12-29T21:36:23.140Z,3.10
2018-12-29T21:38:51.488Z,3.03
2018-12-29T21:41:19.869Z,3.30
2018-12-29T21:43:48.674Z,3.27
2018-12-29T21:46:17.052Z,3.30
2018-12-29T21:48:45.454Z,3.20
2018-12-29T21:51:13.877Z,3.60
2018-12-29T21:53:42.299Z,3.10
2018-12-29T21:56:10.810Z,3.30
2018-12-29T21:58:39.182Z,2.10
2018-12-29T22:01:07.589Z,2.40
2018-12-29T22:03:35.963Z,2.50
2018-12-29T22:06:04.363Z,2.53
2018-12-29T22:08:32.753Z,2.30
2018-12-29T22:11:01.151Z,2.93
2018-12-29T22:13:29.522Z,2.53
2018-12-29T22:15:57.919Z,2.70
2018-12-29T22:18:26.297Z,2.53
2018-12-29T22:20:54.699Z,2.47
2018-12-29T22:23:23.086Z,2.23
2018-12-29T22:25:51.877Z,2.20
2018-12-29T22:28:20.373Z,2.60
2018-12-29T22:30:48.783Z,2.80
2018-12-29T22:33:17.155Z,2.30
2018-12-29T22:35:46.947Z,2.30
2018-12-29T22:38:15.397Z,2.00
2018-12-29T22:40:43.815Z,2.00
2018-12-29T22:43:12.209Z,2.00
2018-12-29T22:45:40.575Z,2.60
2018-12-29T22:48:09.009Z,1.70
2018-12-29T22:50:41.022Z,1.93
2018-12-29T22:53:07.459Z,1.80
2018-12-29T22:55:35.895Z,1.43
2018-12-29T22:58:08.591Z,1.73
2018-12-29T23:00:36.075Z,1.80
2018-12-29T23:03:04.500Z,1.47
2018-12-29T23:05:32.868Z,2.00
2018-12-29T23:08:01.279Z,2.40
2018-12-29T23:10:29.657Z,2.63
2018-12-29T23:12:58.373Z,2.03
2018-12-29T23:15:26.748Z,2.20
2018-12-29T23:17:55.153Z,1.80
2018-12-29T23:20:23.529Z,1.73
2018-12-29T23:22:51.935Z,1.80
2018-12-29T23:25:20.309Z,1.80
2018-12-29T23:27:48.723Z,1.50
2018-12-29T23:30:17.100Z,1.70
2018-12-29T23:35:19.839Z,1.60
2018-12-29T23:37:48.295Z,1.30
2018-12-29T23:40:16.753Z,1.90
2018-12-29T23:42:45.163Z,1.60
2018-12-29T23:45:13.544Z,1.80
2018-12-29T23:47:43.161Z,1.80
2018-12-29T23:50:11.797Z,1.73
2018-12-29T23:52:40.422Z,1.80
2018-12-29T23:55:08.832Z,1.60
2018-12-29T23:57:37.621Z,1.70
